Time;durP1;ratioP1;P1;durP2;ratioP2;P2;SDS_P1;SDS_P2;PMS_P1;PMS_P2;Temp;Humidity;BMP_temperature;BMP_pressure;BME280_temperature;BME280_humidity;BME280_pressure;Samples;Min_cycle;Max_cycle;Signal;HPM_P1;HPM_P2
2022/09/02 00:01:16;;;;;;;1.80;1.45;;;13.00;96.60;;;;;;5009555;28;20076;-83
2022/09/02 00:03:42;;;;;;;3.05;1.50;;;13.00;97.10;;;;;;5012715;28;20116;-82
2022/09/02 00:06:08;;;;;;;2.67;1.42;;;12.90;97.10;;;;;;5012142;28;20044;-82
2022/09/02 00:08:34;;;;;;;2.00;1.80;;;12.90;97.20;;;;;;4997000;28;20037;-82
2022/09/02 00:11:04;;;;;;;3.45;1.50;;;12.90;97.30;;;;;;4976669;28;20029;-82
2022/09/02 00:13:30;;;;;;;3.35;1.65;;;12.80;97.50;;;;;;5009779;28;20045;-82
2022/09/02 00:15:56;;;;;;;2.88;1.50;;;12.80;97.70;;;;;;4994674;28;20106;-83
2022/09/02 00:18:22;;;;;;;2.63;1.50;;;12.80;98.00;;;;;;4995457;28;20552;-83
2022/09/02 00:20:48;;;;;;;4.70;1.30;;;12.80;98.20;;;;;;5006895;28;20038;-83
2022/09/02 00:23:15;;;;;;;1.75;1.63;;;12.70;98.30;;;;;;4994881;28;20041;-82
2022/09/02 00:25:43;;;;;;;2.08;1.50;;;12.70;98.60;;;;;;4992310;28;21495;-82
2022/09/02 00:28:10;;;;;;;2.05;1.48;;;12.70;98.90;;;;;;5005535;28;20514;-82
2022/09/02 00:30:36;;;;;;;3.20;1.60;;;12.60;99.00;;;;;;4991484;28;20048;-82
2022/09/02 00:33:02;;;;;;;6.30;1.83;;;12.60;99.20;;;;;;4995228;28;20037;-82
2022/09/02 00:35:28;;;;;;;2.65;1.65;;;12.60;99.30;;;;;;5010169;28;20029;-82
2022/09/02 00:37:54;;;;;;;2.50;1.75;;;12.60;99.30;;;;;;4979203;28;20063;-82
2022/09/02 00:40:20;;;;;;;2.15;1.30;;;12.60;99.50;;;;;;5010559;28;20041;-82
2022/09/02 00:42:46;;;;;;;8.10;1.85;;;12.60;99.50;;;;;;5009191;28;20046;-82
2022/09/02 00:45:11;;;;;;;1.63;1.52;;;12.60;99.70;;;;;;4994101;28;20030;-82
2022/09/02 00:47:37;;;;;;;6.30;1.80;;;12.60;99.90;;;;;;4994681;28;20414;-82
2022/09/02 00:50:07;;;;;;;3.90;1.60;;;12.60;99.90;;;;;;4981246;28;20132;-82
2022/09/02 00:52:46;;;;;;;7.57;1.80;;;12.60;99.90;;;;;;4999028;28;20069;-82
2022/09/02 00:55:34;;;;;;;2.88;1.70;;;12.50;99.90;;;;;;4995529;28;20121;-83
2022/09/02 00:58:13;;;;;;;4.07;1.80;;;12.50;99.90;;;;;;4999909;28;20042;-83
2022/09/02 01:00:43;;;;;;;2.20;1.80;;;12.50;99.90;;;;;;5015731;28;20040;-82
2022/09/02 01:03:12;;;;;;;2.25;1.60;;;12.50;99.90;;;;;;5015194;28;20037;-83
2022/09/02 01:05:43;;;;;;;2.70;1.85;;;12.50;99.90;;;;;;5014827;28;20041;-83
2022/09/02 01:08:10;;;;;;;4.93;1.90;;;12.40;99.90;;;;;;4995236;28;20124;-83
2022/09/02 01:10:36;;;;;;;3.45;1.70;;;12.40;99.90;;;;;;5014415;28;20097;-83
2022/09/02 01:13:10;;;;;;;2.17;1.60;;;12.40;99.90;;;;;;4998924;28;20119;-83
2022/09/02 01:15:45;;;;;;;1.60;1.50;;;12.40;99.90;;;;;;5014023;28;20056;-83
2022/09/02 01:18:17;;;;;;;3.75;1.70;;;12.40;99.90;;;;;;4998786;28;20033;-83
2022/09/02 01:20:43;;;;;;;2.13;1.80;;;12.40;99.90;;;;;;4997999;28;20250;-82
2022/09/02 01:23:09;;;;;;;3.35;1.70;;;12.30;99.90;;;;;;4999488;28;20037;-83
2022/09/02 01:25:35;;;;;;;1.83;1.60;;;12.30;99.90;;;;;;4979967;28;20042;-82
2022/09/02 01:28:05;;;;;;;1.88;1.70;;;12.30;99.90;;;;;;4995985;28;20095;-82
2022/09/02 01:30:32;;;;;;;5.38;1.50;;;12.30;99.90;;;;;;4994916;28;20075;-82
2022/09/02 01:32:58;;;;;;;4.97;1.88;;;12.20;99.90;;;;;;5013447;28;20041;-83
2022/09/02 01:35:24;;;;;;;3.92;2.00;;;12.20;99.90;;;;;;4980474;28;20479;-82
2022/09/02 01:37:54;;;;;;;4.07;1.70;;;12.30;99.90;;;;;;5012090;28;20521;-83
2022/09/02 01:40:21;;;;;;;3.83;2.00;;;12.20;99.90;;;;;;5011803;28;20059;-82
2022/09/02 01:42:48;;;;;;;4.07;1.83;;;12.10;99.90;;;;;;5014285;28;20094;-82
2022/09/02 01:45:14;;;;;;;1.92;1.67;;;12.10;99.90;;;;;;4995588;28;20030;-83
2022/09/02 01:47:40;;;;;;;2.55;1.73;;;12.10;99.90;;;;;;5012190;28;20049;-83
2022/09/02 01:50:07;;;;;;;2.85;1.77;;;12.10;99.90;;;;;;4995096;28;20044;-83
2022/09/02 01:52:33;;;;;;;3.35;1.80;;;12.10;99.90;;;;;;5009533;28;20406;-83
2022/09/02 01:54:59;;;;;;;4.78;2.10;;;12.00;99.90;;;;;;4998104;28;20041;-83
2022/09/02 01:57:25;;;;;;;2.65;1.58;;;12.00;99.90;;;;;;4986439;28;20867;-83
2022/09/02 01:59:52;;;;;;;3.30;1.67;;;12.00;99.90;;;;;;4997037;28;20061;-83
2022/09/02 02:02:19;;;;;;;3.55;1.90;;;11.90;99.90;;;;;;5012241;28;20038;-83
2022/09/02 02:04:46;;;;;;;2.70;1.90;;;11.90;99.90;;;;;;4997586;28;20059;-83
2022/09/02 02:07:14;;;;;;;3.20;1.90;;;11.90;99.90;;;;;;5013490;28;20046;-83
2022/09/02 02:09:41;;;;;;;2.58;1.80;;;11.90;99.90;;;;;;4990451;28;20038;-83
2022/09/02 02:12:08;;;;;;;5.78;2.13;;;11.80;99.90;;;;;;4995223;28;20041;-83
2022/09/02 02:14:35;;;;;;;4.70;1.80;;;11.80;99.90;;;;;;5011397;28;20034;-83
2022/09/02 02:17:01;;;;;;;6.00;1.90;;;11.80;99.90;;;;;;4998605;28;20120;-83
2022/09/02 02:19:27;;;;;;;2.70;1.70;;;11.80;99.90;;;;;;5015744;28;20088;-83
2022/09/02 02:21:53;;;;;;;1.80;1.70;;;11.80;99.90;;;;;;5015995;28;20037;-83
2022/09/02 02:24:19;;;;;;;4.63;1.65;;;11.80;99.90;;;;;;5011425;28;20034;-83
2022/09/02 02:26:46;;;;;;;4.00;1.88;;;11.70;99.90;;;;;;5010322;28;20092;-83
2022/09/02 02:29:12;;;;;;;8.88;2.22;;;11.70;99.90;;;;;;4992726;28;20033;-83
2022/09/02 02:31:38;;;;;;;3.47;1.70;;;11.70;99.90;;;;;;5013133;28;20040;-83
2022/09/02 02:34:04;;;;;;;2.22;1.73;;;11.70;99.90;;;;;;5011107;28;20041;-83
2022/09/02 02:36:30;;;;;;;2.35;2.00;;;11.70;99.90;;;;;;5010462;28;20577;-82
2022/09/02 02:38:57;;;;;;;3.10;1.88;;;11.60;99.90;;;;;;4995285;28;20601;-82
2022/09/02 02:41:22;;;;;;;2.28;2.08;;;11.60;99.90;;;;;;5010624;28;20081;-82
2022/09/02 02:43:48;;;;;;;2.92;2.13;;;11.60;99.90;;;;;;5009352;28;20072;-82
2022/09/02 02:46:14;;;;;;;2.15;1.95;;;11.60;99.90;;;;;;4997528;28;20082;-82
2022/09/02 02:48:41;;;;;;;2.15;1.92;;;11.50;99.90;;;;;;4994631;28;20049;-82
2022/09/02 02:51:08;;;;;;;2.03;1.77;;;11.50;99.90;;;;;;5010340;28;20049;-82
2022/09/02 02:53:35;;;;;;;3.08;1.95;;;11.50;99.90;;;;;;5009791;28;20043;-82
2022/09/02 02:56:02;;;;;;;2.10;1.77;;;11.40;99.90;;;;;;4995910;28;20445;-82
2022/09/02 02:58:28;;;;;;;3.00;1.95;;;11.50;99.90;;;;;;4976877;28;20045;-82
2022/09/02 03:00:55;;;;;;;4.00;2.10;;;11.50;99.90;;;;;;5011256;28;20029;-82
2022/09/02 03:03:21;;;;;;;4.57;1.90;;;11.40;99.90;;;;;;4993417;28;20077;-82
2022/09/02 03:05:48;;;;;;;2.63;1.90;;;11.40;99.90;;;;;;4995719;28;20073;-82
2022/09/02 03:08:19;;;;;;;3.03;1.80;;;11.40;99.90;;;;;;5010510;28;20052;-83
2022/09/02 03:10:53;;;;;;;2.85;2.03;;;11.40;99.90;;;;;;5006840;28;20042;-82
2022/09/02 03:13:20;;;;;;;2.85;2.17;;;11.30;99.90;;;;;;5010108;28;20037;-82
2022/09/02 03:15:47;;;;;;;2.17;1.98;;;11.40;99.90;;;;;;5005020;28;20044;-82
2022/09/02 03:18:13;;;;;;;3.35;2.00;;;11.30;99.90;;;;;;5011692;28;20499;-82
2022/09/02 03:20:39;;;;;;;2.50;2.10;;;11.30;99.90;;;;;;4980125;28;20040;-82
2022/09/02 03:23:05;;;;;;;4.45;2.20;;;11.30;99.90;;;;;;4981498;28;20482;-82
2022/09/02 03:25:32;;;;;;;4.40;2.42;;;11.20;99.90;;;;;;5013941;28;20053;-82
2022/09/02 03:27:59;;;;;;;3.70;2.10;;;11.30;99.90;;;;;;5013968;28;20038;-82
2022/09/02 03:30:28;;;;;;;2.60;2.30;;;11.20;99.90;;;;;;4996827;28;20059;-82
2022/09/02 03:33:04;;;;;;;2.10;1.90;;;11.20;99.90;;;;;;5078979;28;20138;-70
2022/09/02 03:35:31;;;;;;;3.03;2.30;;;11.20;99.90;;;;;;5079549;28;20429;-69
2022/09/02 03:37:58;;;;;;;2.80;2.30;;;11.10;99.90;;;;;;5080835;28;20032;-70
2022/09/02 03:40:26;;;;;;;3.13;2.08;;;11.10;99.90;;;;;;5089204;28;20040;-70
2022/09/02 03:42:52;;;;;;;4.47;2.20;;;11.10;99.90;;;;;;5062476;28;20040;-69
2022/09/02 03:45:19;;;;;;;3.33;2.47;;;11.10;99.90;;;;;;5075584;28;20036;-69
2022/09/02 03:47:55;;;;;;;2.58;2.17;;;11.10;99.90;;;;;;5076707;28;20036;-70
2022/09/02 03:50:28;;;;;;;2.55;2.33;;;11.00;99.90;;;;;;5075028;28;20448;-70
2022/09/02 03:52:54;;;;;;;3.35;2.22;;;11.00;99.90;;;;;;5088152;28;20041;-70
2022/09/02 03:55:21;;;;;;;2.80;2.10;;;11.00;99.90;;;;;;5092372;28;20115;-70
2022/09/02 03:57:46;;;;;;;4.40;2.22;;;10.90;99.90;;;;;;5076052;28;20044;-70
2022/09/02 04:00:15;;;;;;;7.53;2.83;;;10.90;99.90;;;;;;5074038;28;20332;-69
2022/09/02 04:02:42;;;;;;;2.95;2.70;;;10.90;99.90;;;;;;5088267;28;20047;-69
2022/09/02 04:05:11;;;;;;;4.25;2.40;;;10.90;99.90;;;;;;5075824;28;20040;-69
2022/09/02 04:07:38;;;;;;;5.43;2.35;;;10.90;99.90;;;;;;5073953;28;20048;-70
2022/09/02 04:10:07;;;;;;;2.90;2.47;;;10.90;99.90;;;;;;5071929;28;20063;-70
2022/09/02 04:12:33;;;;;;;3.50;2.50;;;10.80;99.90;;;;;;5059016;28;20051;-70
2022/09/02 04:14:59;;;;;;;4.72;2.30;;;10.80;99.90;;;;;;5060519;28;20062;-70
2022/09/02 04:17:25;;;;;;;2.70;2.35;;;10.80;99.90;;;;;;5059951;28;20482;-69
2022/09/02 04:19:53;;;;;;;3.53;2.30;;;10.80;99.90;;;;;;5042133;28;20155;-69
2022/09/02 04:22:19;;;;;;;3.67;2.22;;;10.80;99.90;;;;;;5076548;28;20112;-69
2022/09/02 04:24:45;;;;;;;4.38;2.42;;;10.80;99.90;;;;;;5078012;28;20044;-70
2022/09/02 04:27:11;;;;;;;4.20;2.50;;;10.80;99.90;;;;;;5075226;28;20530;-69
2022/09/02 04:29:36;;;;;;;2.50;2.30;;;10.80;99.90;;;;;;5059034;28;20055;-69
2022/09/02 04:32:03;;;;;;;2.60;2.30;;;10.80;99.90;;;;;;5044552;28;20265;-70
2022/09/02 04:34:28;;;;;;;3.10;2.40;;;10.80;99.90;;;;;;5055604;28;20083;-69
2022/09/02 04:36:55;;;;;;;3.08;2.50;;;10.70;99.90;;;;;;5074021;28;20065;-69
2022/09/02 04:39:21;;;;;;;4.13;2.45;;;10.70;99.90;;;;;;5059111;28;20447;-70
2022/09/02 04:41:47;;;;;;;4.78;2.55;;;10.70;99.90;;;;;;5074528;28;20052;-69
2022/09/02 04:44:13;;;;;;;4.13;2.50;;;10.70;99.90;;;;;;5044147;28;20094;-69
2022/09/02 04:46:39;;;;;;;3.63;2.63;;;10.70;99.90;;;;;;5048877;28;20053;-69
2022/09/02 04:49:05;;;;;;;3.28;2.58;;;10.70;99.90;;;;;;5078837;28;20044;-69
2022/09/02 04:51:31;;;;;;;4.05;2.20;;;10.70;99.90;;;;;;5048061;28;20055;-70
2022/09/02 04:53:57;;;;;;;5.68;2.58;;;10.70;99.90;;;;;;5072921;28;20033;-69
2022/09/02 04:56:26;;;;;;;4.63;2.60;;;10.70;99.90;;;;;;5030387;28;20519;-70
2022/09/02 04:58:54;;;;;;;3.42;2.45;;;10.70;99.90;;;;;;5079733;28;20048;-69
2022/09/02 05:01:26;;;;;;;3.10;2.65;;;10.70;99.90;;;;;;5058705;28;20048;-70
2022/09/02 05:03:52;;;;;;;5.00;2.63;;;10.70;99.90;;;;;;5058899;28;20037;-69
2022/09/02 05:06:25;;;;;;;5.78;2.97;;;10.70;99.90;;;;;;5063272;28;20093;-70
2022/09/02 05:08:53;;;;;;;3.00;2.65;;;10.70;99.90;;;;;;5057909;28;20136;-70
2022/09/02 05:11:21;;;;;;;3.58;2.53;;;10.70;99.90;;;;;;5046156;28;20102;-69
2022/09/02 05:13:50;;;;;;;4.85;2.50;;;10.70;99.90;;;;;;5060125;28;20667;-71
2022/09/02 05:16:19;;;;;;;2.80;2.47;;;10.60;99.90;;;;;;5064395;28;20103;-71
2022/09/02 05:18:45;;;;;;;3.80;2.40;;;10.70;99.90;;;;;;5057192;28;20066;-70
2022/09/02 05:21:11;;;;;;;6.72;2.60;;;10.70;99.90;;;;;;5061520;28;20123;-71
2022/09/02 05:23:37;;;;;;;5.57;2.90;;;10.70;99.90;;;;;;5039442;28;20520;-71
2022/09/02 05:26:04;;;;;;;4.50;2.75;;;10.70;99.90;;;;;;5062165;28;20041;-70
2022/09/02 05:28:30;;;;;;;3.40;2.60;;;10.80;99.90;;;;;;5042312;28;20074;-71
2022/09/02 05:31:16;;;;;;;3.70;2.88;;;10.80;99.90;;;;;;5059363;28;20087;-71
2022/09/02 05:33:42;;;;;;;5.22;2.53;;;10.80;99.90;;;;;;5058831;28;20046;-70
2022/09/02 05:36:11;;;;;;;4.05;2.63;;;10.80;99.90;;;;;;5045991;28;20109;-69
2022/09/02 05:38:41;;;;;;;4.65;2.72;;;10.90;99.90;;;;;;5044980;28;20040;-71
2022/09/02 05:41:14;;;;;;;3.00;2.40;;;10.90;99.90;;;;;;5063744;28;20107;-70
2022/09/02 05:43:43;;;;;;;2.70;2.50;;;10.90;99.90;;;;;;5074179;28;20413;-70
2022/09/02 05:46:12;;;;;;;3.50;2.70;;;10.90;99.90;;;;;;5029335;28;20036;-71
2022/09/02 05:51:23;;;;;;;3.72;2.65;;;11.00;99.90;;;;;;5062278;28;20041;-70
2022/09/02 05:53:53;;;;;;;4.47;2.83;;;11.10;99.90;;;;;;5044114;28;20036;-70
2022/09/02 05:56:20;;;;;;;3.42;2.45;;;11.10;99.90;;;;;;5060754;28;20617;-71
2022/09/02 05:58:46;;;;;;;3.72;2.80;;;11.20;99.90;;;;;;5026191;28;20126;-71
2022/09/02 06:01:13;;;;;;;5.65;2.97;;;11.20;99.90;;;;;;5056693;28;20099;-70
2022/09/02 06:03:40;;;;;;;5.55;2.97;;;11.20;99.90;;;;;;5046631;28;20041;-71
2022/09/02 06:06:06;;;;;;;3.88;2.72;;;11.30;99.90;;;;;;5038442;28;20120;-70
2022/09/02 06:08:33;;;;;;;3.40;3.10;;;11.30;99.90;;;;;;5062096;28;20090;-71
2022/09/02 06:11:02;;;;;;;4.45;2.97;;;11.40;99.90;;;;;;5058659;28;20044;-71
2022/09/02 06:13:36;;;;;;;4.10;2.78;;;11.50;99.90;;;;;;5060488;28;20032;-71
2022/09/02 06:16:03;;;;;;;6.63;3.03;;;11.50;99.90;;;;;;5061656;28;20024;-70
2022/09/02 06:18:29;;;;;;;5.43;2.92;;;11.50;99.90;;;;;;5060761;28;20056;-71
2022/09/02 06:20:54;;;;;;;6.43;3.05;;;11.70;99.90;;;;;;5046048;28;20075;-71
2022/09/02 06:23:20;;;;;;;6.28;3.40;;;11.70;99.90;;;;;;5045311;28;20040;-71
2022/09/02 06:25:48;;;;;;;4.93;2.90;;;11.80;99.90;;;;;;5045328;28;20127;-70
2022/09/02 06:28:15;;;;;;;4.22;3.25;;;11.90;99.90;;;;;;5038441;28;20044;-71
2022/09/02 06:30:43;;;;;;;4.32;3.63;;;11.80;99.90;;;;;;5046937;28;20036;-71
2022/09/02 06:33:10;;;;;;;4.95;3.50;;;12.00;99.90;;;;;;5049770;28;20135;-71
2022/09/02 06:35:38;;;;;;;8.52;3.28;;;12.10;99.90;;;;;;5065966;28;20044;-71
2022/09/02 06:38:05;;;;;;;4.50;3.00;;;12.10;99.90;;;;;;5069628;28;20032;-71
2022/09/02 06:40:32;;;;;;;3.40;3.08;;;12.20;99.90;;;;;;5071392;28;20163;-71
2022/09/02 06:42:57;;;;;;;10.40;3.63;;;12.30;99.90;;;;;;5042489;28;20618;-71
2022/09/02 06:45:23;;;;;;;3.17;2.88;;;12.40;99.90;;;;;;5058046;28;20044;-71
2022/09/02 06:47:50;;;;;;;5.13;3.25;;;12.60;99.90;;;;;;5045909;28;20048;-71
2022/09/02 06:50:16;;;;;;;4.88;3.20;;;12.70;99.90;;;;;;5058973;28;20440;-71
2022/09/02 06:52:41;;;;;;;3.95;3.10;;;12.80;99.90;;;;;;5024156;28;20036;-71
2022/09/02 06:55:09;;;;;;;5.65;3.08;;;12.90;99.90;;;;;;5045915;28;20052;-70
2022/09/02 06:57:35;;;;;;;3.97;3.53;;;13.00;99.90;;;;;;5059859;28;20037;-71
2022/09/02 07:00:05;;;;;;;6.43;3.33;;;13.20;99.90;;;;;;5045671;28;20482;-72
2022/09/02 07:02:30;;;;;;;4.18;3.08;;;13.30;99.90;;;;;;5041209;28;20089;-72
2022/09/02 07:05:08;;;;;;;5.68;3.03;;;13.50;99.90;;;;;;5063033;28;20119;-73
2022/09/02 07:07:39;;;;;;;2.90;2.70;;;13.60;99.90;;;;;;5048164;28;20278;-73
2022/09/02 07:10:07;;;;;;;4.88;3.03;;;13.70;99.90;;;;;;5052822;28;20037;-73
2022/09/02 07:12:35;;;;;;;8.63;3.10;;;13.90;99.90;;;;;;5067493;28;20032;-74
2022/09/02 07:15:01;;;;;;;9.65;4.28;;;14.10;99.90;;;;;;5052634;28;20040;-73
2022/09/02 07:17:27;;;;;;;14.52;8.75;;;14.30;99.90;;;;;;5049557;28;20421;-72
2022/09/02 07:19:54;;;;;;;6.85;3.10;;;14.50;99.90;;;;;;5067826;28;20064;-73
2022/09/02 07:22:20;;;;;;;5.93;3.03;;;14.60;99.90;;;;;;5068496;28;20067;-72
2022/09/02 07:24:46;;;;;;;4.07;2.42;;;14.80;99.90;;;;;;5068874;28;20045;-72
2022/09/02 07:27:12;;;;;;;3.30;2.70;;;15.00;99.90;;;;;;5067417;28;20117;-72
2022/09/02 07:29:40;;;;;;;10.43;3.05;;;15.20;99.90;;;;;;5067952;28;20107;-73
2022/09/02 07:32:06;;;;;;;4.63;2.25;;;15.50;99.90;;;;;;5070217;28;20506;-72
2022/09/02 07:34:31;;;;;;;5.90;2.40;;;15.70;99.90;;;;;;5053519;28;20055;-73
2022/09/02 07:36:57;;;;;;;4.65;2.42;;;15.90;99.90;;;;;;5053951;28;20044;-72
2022/09/02 07:39:23;;;;;;;2.28;2.08;;;16.20;99.90;;;;;;5069775;28;20055;-72
2022/09/02 07:41:50;;;;;;;4.03;2.20;;;16.30;99.90;;;;;;5054305;28;20036;-72
2022/09/02 07:44:17;;;;;;;3.13;2.53;;;16.60;99.90;;;;;;5068562;28;20032;-71
2022/09/02 07:46:43;;;;;;;9.57;2.60;;;16.80;99.90;;;;;;5070075;28;20040;-71
2022/09/02 07:49:11;;;;;;;4.00;2.20;;;17.00;99.90;;;;;;5068913;28;20040;-73
2022/09/02 07:51:40;;;;;;;2.92;2.15;;;17.20;99.90;;;;;;5054038;28;20048;-72
2022/09/02 07:54:08;;;;;;;8.50;2.25;;;17.40;99.90;;;;;;5052484;28;20033;-71
2022/09/02 07:56:34;;;;;;;6.90;2.42;;;17.50;99.90;;;;;;5068396;28;20378;-70
2022/09/02 07:59:00;;;;;;;6.13;2.10;;;17.70;99.90;;;;;;5050134;28;20044;-71
2022/09/02 08:01:26;;;;;;;5.20;2.58;;;17.80;99.90;;;;;;5067822;28;20036;-72
2022/09/02 08:03:52;;;;;;;4.15;2.15;;;18.00;99.90;;;;;;5053310;28;20044;-71
2022/09/02 08:06:19;;;;;;;5.00;2.22;;;18.20;99.90;;;;;;5069311;28;20036;-71
2022/09/02 08:08:45;;;;;;;4.72;2.20;;;18.40;99.90;;;;;;5069493;28;20127;-72
2022/09/02 08:11:12;;;;;;;12.55;2.60;;;18.50;99.90;;;;;;5069372;28;20033;-75
2022/09/02 08:13:38;;;;;;;3.15;1.90;;;18.70;99.90;;;;;;5069677;28;20028;-73
2022/09/02 08:16:05;;;;;;;10.45;2.55;;;18.80;99.90;;;;;;5050947;28;20106;-74
2022/09/02 08:18:30;;;;;;;24.88;3.95;;;19.00;99.90;;;;;;5053887;28;20485;-74
2022/09/02 08:20:56;;;;;;;4.97;2.03;;;19.20;99.90;;;;;;5038343;28;20063;-73
2022/09/02 08:23:22;;;;;;;11.85;3.80;;;19.40;99.90;;;;;;5039748;28;20039;-77
2022/09/02 08:25:48;;;;;;;3.65;1.90;;;19.50;99.90;;;;;;5054866;28;20076;-77
2022/09/02 08:28:14;;;;;;;5.32;1.92;;;19.70;99.80;;;;;;5087718;28;20756;-78
2022/09/02 08:30:40;;;;;;;2.30;1.90;;;19.80;99.60;;;;;;5038117;28;20128;-78
2022/09/02 08:33:05;;;;;;;6.90;1.80;;;20.00;99.20;;;;;;5055342;28;20081;-77
2022/09/02 08:35:32;;;;;;;3.20;2.00;;;20.10;98.90;;;;;;5056186;28;20044;-78
2022/09/02 08:37:58;;;;;;;5.28;1.70;;;20.30;98.40;;;;;;5054113;28;20037;-77
2022/09/02 08:40:34;;;;;;;2.30;1.83;;;20.40;98.30;;;;;;5069953;28;20168;-78
2022/09/02 08:43:00;;;;;;;3.35;1.98;;;20.50;97.90;;;;;;5052896;28;20068;-76
2022/09/02 08:45:29;;;;;;;4.05;2.05;;;20.70;97.70;;;;;;5072144;28;20040;-75
2022/09/02 08:48:11;;;;;;;4.05;2.10;;;20.80;97.50;;;;;;5071856;28;20052;-76
2022/09/02 08:50:38;;;;;;;;;;;20.90;96.80;;;;;;5072911;28;20040;-76
2022/09/02 08:53:29;;;;;;;5.10;2.08;;;21.00;96.70;;;;;;5055048;28;19928;-76
2022/09/02 08:55:58;;;;;;;3.72;1.95;;;21.10;95.40;;;;;;5055214;28;20051;-76
2022/09/02 08:58:28;;;;;;;5.75;2.08;;;21.40;96.10;;;;;;5069162;28;20054;-76
2022/09/02 09:01:30;;;;;;;1.85;1.70;;;21.30;96.10;;;;;;5073423;28;20052;-78
2022/09/02 09:04:14;;;;;;;3.58;2.15;;;21.40;95.00;;;;;;5054930;28;20127;-77
2022/09/02 09:06:52;;;;;;;2.38;1.70;;;21.60;95.00;;;;;;5070833;28;20039;-76
2022/09/02 09:09:30;;;;;;;2.33;1.48;;;21.70;95.00;;;;;;5054969;28;20036;-75
2022/09/02 09:12:08;;;;;;;3.95;2.00;;;21.80;94.10;;;;;;5069690;28;20033;-76
2022/09/02 09:15:07;;;;;;;6.60;3.47;;;22.00;94.40;;;;;;5054728;28;20043;-78
2022/09/02 09:17:44;;;;;;;7.53;1.67;;;22.10;94.00;;;;;;5071850;28;20041;-77
2022/09/02 09:20:23;;;;;;;4.75;1.60;;;22.20;93.70;;;;;;5070609;28;20181;-76
2022/09/02 09:22:51;;;;;;;4.22;1.65;;;22.30;92.90;;;;;;5055276;28;20040;-77
2022/09/02 09:25:17;;;;;;;4.32;1.60;;;22.50;93.00;;;;;;5053120;28;20044;-77
2022/09/02 09:27:46;;;;;;;6.18;1.67;;;22.60;92.80;;;;;;5071386;28;20056;-77
2022/09/02 09:30:13;;;;;;;2.55;1.92;;;22.60;92.50;;;;;;5070441;28;20047;-76
2022/09/02 09:33:02;;;;;;;3.70;1.73;;;22.70;92.40;;;;;;5071358;28;20123;-76
2022/09/02 09:35:50;;;;;;;2.80;1.90;;;22.80;91.70;;;;;;5070925;28;20033;-76
2022/09/02 09:38:31;;;;;;;1.63;1.23;;;23.00;91.20;;;;;;5071389;28;20107;-77
2022/09/02 09:41:29;;;;;;;7.57;2.08;;;23.10;90.80;;;;;;5070161;28;20131;-76
2022/09/02 09:43:56;;;;;;;5.13;1.35;;;23.20;91.00;;;;;;5019968;28;20079;-78
2022/09/02 09:46:32;;;;;;;3.42;1.40;;;23.30;90.70;;;;;;5022040;28;20040;-76
2022/09/02 09:48:58;;;;;;;5.22;1.77;;;23.40;89.50;;;;;;5071926;28;20112;-77
2022/09/02 09:51:24;;;;;;;6.32;1.58;;;23.50;89.60;;;;;;5054469;28;20120;-77
2022/09/02 09:53:51;;;;;;;6.18;1.70;;;23.60;89.30;;;;;;5054741;28;20432;-74
2022/09/02 09:56:17;;;;;;;3.47;1.38;;;23.80;88.70;;;;;;5071712;28;20044;-78
2022/09/02 09:58:45;;;;;;;4.25;1.30;;;23.90;87.60;;;;;;5054009;28;20036;-77
2022/09/02 10:01:10;;;;;;;8.63;1.80;;;23.90;87.20;;;;;;5054109;28;20089;-78
2022/09/02 10:03:41;;;;;;;2.58;1.08;;;24.00;86.80;;;;;;5054157;28;20040;-77
2022/09/02 10:06:29;;;;;;;6.88;1.65;;;24.00;84.60;;;;;;5053019;28;20482;-76
2022/09/02 10:08:58;;;;;;;4.88;1.40;;;24.00;84.10;;;;;;5070791;28;20036;-75
2022/09/02 10:11:29;;;;;;;6.47;1.80;;;24.10;83.50;;;;;;5070041;28;20083;-76
2022/09/02 10:14:01;;;;;;;4.40;1.40;;;24.10;83.20;;;;;;5054162;28;20052;-76
2022/09/02 10:16:51;;;;;;;2.00;1.40;;;24.20;82.80;;;;;;5069972;28;20032;-77
2022/09/02 10:19:40;;;;;;;3.33;1.20;;;24.10;79.50;;;;;;5070214;28;20347;-76
2022/09/02 10:22:08;;;;;;;4.22;1.20;;;24.30;82.10;;;;;;5051142;28;20102;-77
2022/09/02 10:25:06;;;;;;;2.55;1.40;;;24.40;81.20;;;;;;5070499;28;20127;-77
2022/09/02 10:27:35;;;;;;;5.13;1.40;;;24.60;80.00;;;;;;5068573;28;20044;-77
2022/09/02 10:30:18;;;;;;;3.00;1.30;;;24.60;78.50;;;;;;5068908;28;20114;-77
2022/09/02 10:33:10;;;;;;;5.97;1.02;;;24.70;78.20;;;;;;5067088;28;20052;-76
2022/09/02 10:35:41;;;;;;;3.38;1.17;;;24.80;79.40;;;;;;5070159;28;20040;-77
2022/09/02 10:38:31;;;;;;;2.83;1.40;;;24.80;78.70;;;;;;5068857;28;20040;-77
2022/09/02 10:41:52;;;;;;;3.70;1.58;;;24.90;78.10;;;;;;5069715;28;20036;-76
2022/09/02 10:44:32;;;;;;;2.72;1.42;;;25.10;77.30;;;;;;4968498;28;20034;-77
2022/09/02 10:47:08;;;;;;;4.85;1.40;;;25.30;79.20;;;;;;5061080;28;20594;-77
2022/09/02 10:49:59;;;;;;;2.22;1.38;;;25.40;77.30;;;;;;5052122;28;20510;-76
2022/09/02 10:52:54;;;;;;;3.80;1.65;;;25.40;75.60;;;;;;5053416;28;20032;-76
2022/09/02 10:55:55;;;;;;;3.15;1.00;;;25.50;75.60;;;;;;5069234;28;20039;-77
2022/09/02 10:58:49;;;;;;;5.00;1.30;;;25.40;74.30;;;;;;5055533;28;20044;-77
2022/09/02 11:01:25;;;;;;;4.30;1.33;;;25.40;72.40;;;;;;5052269;28;20396;-77
2022/09/02 11:04:04;;;;;;;3.45;1.27;;;25.30;72.90;;;;;;5067162;28;20566;-77
2022/09/02 11:06:42;;;;;;;6.43;1.35;;;25.30;74.10;;;;;;5069799;28;20490;-78
2022/09/02 11:09:23;;;;;;;6.10;2.15;;;25.40;72.80;;;;;;5069089;28;20040;-78
2022/09/02 11:11:54;;;;;;;3.88;1.35;;;25.50;73.50;;;;;;5069596;28;20167;-77
2022/09/02 11:14:25;;;;;;;5.30;1.40;;;25.50;73.50;;;;;;5067732;28;20123;-78
2022/09/02 11:17:18;;;;;;;7.63;1.02;;;25.60;73.20;;;;;;5069869;28;20073;-77
2022/09/02 11:20:23;;;;;;;1.42;1.20;;;25.60;72.60;;;;;;5070051;28;20089;-76
2022/09/02 11:22:58;;;;;;;4.88;1.20;;;25.70;73.10;;;;;;5086756;28;20052;-77
2022/09/02 11:25:37;;;;;;;2.00;1.17;;;25.80;72.30;;;;;;5070557;28;20036;-76
2022/09/02 11:28:21;;;;;;;2.75;1.45;;;25.90;71.50;;;;;;5071469;28;20036;-77
2022/09/02 11:30:56;;;;;;;3.83;1.20;;;25.80;69.80;;;;;;5069882;28;20036;-75
2022/09/02 11:33:26;;;;;;;3.88;1.10;;;25.70;69.10;;;;;;5069637;28;20040;-75
2022/09/02 11:35:51;;;;;;;2.15;1.20;;;25.80;70.30;;;;;;5068267;28;20135;-74
2022/09/02 11:38:26;;;;;;;3.80;1.27;;;25.90;69.80;;;;;;5033992;28;20594;-75
2022/09/02 11:41:06;;;;;;;3.40;1.13;;;26.00;70.60;;;;;;5070109;28;20041;-75
2022/09/02 11:44:11;;;;;;;5.30;1.40;;;26.10;69.00;;;;;;5069493;28;20044;-75
2022/09/02 11:47:21;;;;;;;7.30;1.42;;;26.20;68.10;;;;;;5069057;28;20124;-74
2022/09/02 11:50:24;;;;;;;4.75;1.30;;;26.20;68.60;;;;;;5044680;28;20371;-74
2022/09/02 11:53:17;;;;;;;2.33;1.10;;;26.10;67.30;;;;;;5068724;28;20463;-74
2022/09/02 11:55:55;;;;;;;2.65;1.40;;;26.00;68.30;;;;;;5057612;28;20044;-73
2022/09/02 11:58:34;;;;;;;6.25;2.40;;;26.00;69.00;;;;;;5073766;28;20548;-73
2022/09/02 12:01:26;;;;;;;4.25;1.33;;;26.00;67.80;;;;;;5058135;28;20127;-75
2022/09/02 12:04:12;;;;;;;2.13;1.20;;;26.00;65.90;;;;;;5073777;28;20040;-74
2022/09/02 12:07:04;;;;;;;3.67;1.45;;;25.80;66.00;;;;;;5062278;28;20040;-75
2022/09/02 12:09:51;;;;;;;3.88;1.33;;;25.80;67.60;;;;;;5071012;28;20445;-75
2022/09/02 12:12:35;;;;;;;10.40;1.70;;;25.80;68.40;;;;;;5072258;28;20094;-76
2022/09/02 12:15:15;;;;;;;4.75;1.50;;;25.70;67.80;;;;;;5054284;28;20263;-75
2022/09/02 12:17:50;;;;;;;1.80;1.40;;;25.80;68.40;;;;;;5056238;28;20489;-74
2022/09/02 12:20:35;;;;;;;5.45;1.70;;;25.80;67.40;;;;;;5055149;28;20078;-75
2022/09/02 12:23:00;;;;;;;14.25;1.80;;;26.00;67.80;;;;;;5070649;28;20032;-76
2022/09/02 12:25:27;;;;;;;6.85;1.75;;;26.10;67.80;;;;;;5054854;28;20090;-75
2022/09/02 12:28:24;;;;;;;4.95;1.75;;;26.10;67.80;;;;;;5055852;28;20094;-74
2022/09/02 12:31:07;;;;;;;5.05;1.55;;;26.30;67.20;;;;;;5071027;28;20088;-74
2022/09/02 12:33:39;;;;;;;2.25;1.27;;;26.30;65.80;;;;;;5055401;28;20056;-74
2022/09/02 12:36:07;;;;;;;15.43;2.30;;;26.30;66.70;;;;;;5054773;28;20090;-74
2022/09/02 12:38:37;;;;;;;7.63;1.95;;;26.30;67.40;;;;;;5053725;28;20410;-75
2022/09/02 12:41:03;;;;;;;20.10;2.42;;;26.30;67.20;;;;;;5053968;28;20644;-75
2022/09/02 12:43:43;;;;;;;4.68;1.52;;;26.50;67.30;;;;;;5070302;28;20047;-75
2022/09/02 12:46:24;;;;;;;5.40;1.50;;;26.50;65.80;;;;;;5053357;28;20028;-74
2022/09/02 12:48:57;;;;;;;4.28;1.50;;;26.60;66.30;;;;;;5055393;28;20125;-75
2022/09/02 12:51:50;;;;;;;3.03;1.45;;;26.80;66.40;;;;;;5054066;28;20044;-74
2022/09/02 12:54:17;;;;;;;4.95;1.60;;;26.90;65.90;;;;;;5071187;28;20563;-75
2022/09/02 12:56:49;;;;;;;4.20;1.30;;;26.90;65.60;;;;;;5053273;28;20064;-75
2022/09/02 12:59:31;;;;;;;2.83;1.50;;;26.80;65.80;;;;;;5054158;28;20032;-75
2022/09/02 13:02:24;;;;;;;4.30;1.40;;;26.90;65.00;;;;;;5071694;28;20493;-77
2022/09/02 13:05:15;;;;;;;15.27;2.13;;;27.00;64.30;;;;;;5053720;28;20059;-75
2022/09/02 13:07:49;;;;;;;5.70;1.45;;;26.90;64.50;;;;;;5072012;28;20051;-75
2022/09/02 13:10:48;;;;;;;2.58;1.42;;;26.90;65.00;;;;;;5070436;28;20436;-73